sensor_id;sensor_type;location;lat;lon;timestamp;P1;durP1;ratioP1;P2;durP2;ratioP2
44137;SDS011;29800;55.942;37.314;2023-03-14T00:01:20;1.13;;;0.70;;
44137;SDS011;29800;55.942;37.314;2023-03-14T00:03:47;1.92;;;0.82;;
44137;SDS011;29800;55.942;37.314;2023-03-14T00:06:14;1.00;;;0.70;;
44137;SDS011;29800;55.942;37.314;2023-03-14T00:08:41;1.30;;;0.70;;
44137;SDS011;29800;55.942;37.314;2023-03-14T00:11:10;2.15;;;1.08;;
44137;SDS011;29800;55.942;37.314;2023-03-14T00:13:39;1.73;;;0.98;;
44137;SDS011;29800;55.942;37.314;2023-03-14T00:16:07;4.25;;;1.13;;
44137;SDS011;29800;55.942;37.314;2023-03-14T00:18:35;3.33;;;1.52;;
44137;SDS011;29800;55.942;37.314;2023-03-14T00:21:03;1.35;;;0.75;;
44137;SDS011;29800;55.942;37.314;2023-03-14T00:23:32;1.70;;;0.68;;
44137;SDS011;29800;55.942;37.314;2023-03-14T00:25:59;0.55;;;0.43;;
44137;SDS011;29800;55.942;37.314;2023-03-14T00:28:30;3.65;;;0.82;;
44137;SDS011;29800;55.942;37.314;2023-03-14T00:30:56;1.52;;;0.82;;
44137;SDS011;29800;55.942;37.314;2023-03-14T00:33:23;2.55;;;1.45;;
44137;SDS011;29800;55.942;37.314;2023-03-14T00:35:55;1.55;;;0.65;;
44137;SDS011;29800;55.942;37.314;2023-03-14T00:38:22;2.97;;;0.80;;
44137;SDS011;29800;55.942;37.314;2023-03-14T00:40:50;1.52;;;0.90;;
44137;SDS011;29800;55.942;37.314;2023-03-14T00:43:17;3.42;;;1.13;;
44137;SDS011;29800;55.942;37.314;2023-03-14T00:45:50;2.83;;;0.88;;
44137;SDS011;29800;55.942;37.314;2023-03-14T00:48:18;1.90;;;1.02;;
44137;SDS011;29800;55.942;37.314;2023-03-14T00:50:45;3.90;;;1.35;;
44137;SDS011;29800;55.942;37.314;2023-03-14T00:53:14;1.83;;;0.75;;
44137;SDS011;29800;55.942;37.314;2023-03-14T00:55:41;1.55;;;0.95;;
44137;SDS011;29800;55.942;37.314;2023-03-14T00:58:09;1.30;;;0.40;;
44137;SDS011;29800;55.942;37.314;2023-03-14T01:00:40;4.57;;;0.85;;
44137;SDS011;29800;55.942;37.314;2023-03-14T01:03:07;4.20;;;1.08;;
44137;SDS011;29800;55.942;37.314;2023-03-14T01:05:33;2.88;;;1.25;;
44137;SDS011;29800;55.942;37.314;2023-03-14T01:08:00;1.23;;;0.60;;
44137;SDS011;29800;55.942;37.314;2023-03-14T01:10:27;4.45;;;1.27;;
44137;SDS011;29800;55.942;37.314;2023-03-14T01:12:53;4.00;;;1.15;;
44137;SDS011;29800;55.942;37.314;2023-03-14T01:15:19;2.65;;;1.35;;
44137;SDS011;29800;55.942;37.314;2023-03-14T01:17:46;9.40;;;0.75;;
44137;SDS011;29800;55.942;37.314;2023-03-14T01:20:13;3.20;;;1.05;;
44137;SDS011;29800;55.942;37.314;2023-03-14T01:22:41;1.73;;;1.13;;
44137;SDS011;29800;55.942;37.314;2023-03-14T01:25:09;1.55;;;0.77;;
44137;SDS011;29800;55.942;37.314;2023-03-14T01:27:40;3.28;;;1.40;;
44137;SDS011;29800;55.942;37.314;2023-03-14T01:30:07;1.85;;;1.10;;
44137;SDS011;29800;55.942;37.314;2023-03-14T01:32:34;4.25;;;1.90;;
44137;SDS011;29800;55.942;37.314;2023-03-14T01:35:01;2.88;;;1.10;;
44137;SDS011;29800;55.942;37.314;2023-03-14T01:37:28;1.92;;;1.23;;
44137;SDS011;29800;55.942;37.314;2023-03-14T01:39:54;2.15;;;0.90;;
44137;SDS011;29800;55.942;37.314;2023-03-14T01:42:21;2.63;;;1.70;;
44137;SDS011;29800;55.942;37.314;2023-03-14T01:47:21;2.28;;;1.35;;
44137;SDS011;29800;55.942;37.314;2023-03-14T01:49:49;2.47;;;1.35;;
44137;SDS011;29800;55.942;37.314;2023-03-14T01:52:25;5.05;;;1.70;;
44137;SDS011;29800;55.942;37.314;2023-03-14T01:55:00;6.97;;;1.90;;
44137;SDS011;29800;55.942;37.314;2023-03-14T01:57:33;2.80;;;1.70;;
44137;SDS011;29800;55.942;37.314;2023-03-14T02:02:40;2.45;;;1.10;;
44137;SDS011;29800;55.942;37.314;2023-03-14T02:05:38;2.75;;;1.67;;
44137;SDS011;29800;55.942;37.314;2023-03-14T02:08:11;1.95;;;1.25;;
44137;SDS011;29800;55.942;37.314;2023-03-14T02:10:56;2.30;;;1.60;;
44137;SDS011;29800;55.942;37.314;2023-03-14T02:13:36;3.22;;;1.50;;
44137;SDS011;29800;55.942;37.314;2023-03-14T02:16:21;3.15;;;1.55;;
44137;SDS011;29800;55.942;37.314;2023-03-14T02:19:06;3.67;;;1.80;;
44137;SDS011;29800;55.942;37.314;2023-03-14T02:21:57;4.32;;;2.05;;
44137;SDS011;29800;55.942;37.314;2023-03-14T02:27:29;3.67;;;2.10;;
44137;SDS011;29800;55.942;37.314;2023-03-14T02:30:01;2.60;;;1.38;;
44137;SDS011;29800;55.942;37.314;2023-03-14T02:32:32;3.90;;;1.27;;
44137;SDS011;29800;55.942;37.314;2023-03-14T02:35:01;4.43;;;2.40;;
44137;SDS011;29800;55.942;37.314;2023-03-14T02:38:09;3.45;;;2.03;;
44137;SDS011;29800;55.942;37.314;2023-03-14T02:40:36;2.80;;;1.58;;
44137;SDS011;29800;55.942;37.314;2023-03-14T02:43:02;2.80;;;1.67;;
44137;SDS011;29800;55.942;37.314;2023-03-14T02:45:35;4.50;;;1.98;;
44137;SDS011;29800;55.942;37.314;2023-03-14T02:48:09;5.40;;;2.33;;
44137;SDS011;29800;55.942;37.314;2023-03-14T02:50:57;1.92;;;1.17;;
44137;SDS011;29800;55.942;37.314;2023-03-14T02:53:27;8.10;;;2.15;;
44137;SDS011;29800;55.942;37.314;2023-03-14T02:56:03;6.47;;;3.13;;
44137;SDS011;29800;55.942;37.314;2023-03-14T02:58:34;6.47;;;2.90;;
44137;SDS011;29800;55.942;37.314;2023-03-14T03:01:14;19.20;;;3.47;;
44137;SDS011;29800;55.942;37.314;2023-03-14T03:03:40;2.05;;;1.40;;
44137;SDS011;29800;55.942;37.314;2023-03-14T03:06:07;3.78;;;2.38;;
44137;SDS011;29800;55.942;37.314;2023-03-14T03:08:33;4.63;;;2.45;;
44137;SDS011;29800;55.942;37.314;2023-03-14T03:11:00;3.50;;;1.75;;
44137;SDS011;29800;55.942;37.314;2023-03-14T03:13:30;3.10;;;1.80;;
44137;SDS011;29800;55.942;37.314;2023-03-14T03:15:57;3.53;;;1.75;;
44137;SDS011;29800;55.942;37.314;2023-03-14T03:18:23;4.47;;;2.08;;
44137;SDS011;29800;55.942;37.314;2023-03-14T03:20:49;5.25;;;2.40;;
44137;SDS011;29800;55.942;37.314;2023-03-14T03:23:16;3.80;;;1.95;;
44137;SDS011;29800;55.942;37.314;2023-03-14T03:25:42;2.92;;;1.70;;
44137;SDS011;29800;55.942;37.314;2023-03-14T03:28:13;4.55;;;2.95;;
44137;SDS011;29800;55.942;37.314;2023-03-14T03:30:40;2.92;;;1.27;;
44137;SDS011;29800;55.942;37.314;2023-03-14T03:33:07;3.83;;;2.33;;
44137;SDS011;29800;55.942;37.314;2023-03-14T03:35:33;3.30;;;1.95;;
44137;SDS011;29800;55.942;37.314;2023-03-14T03:38:00;3.80;;;2.22;;
44137;SDS011;29800;55.942;37.314;2023-03-14T03:40:28;8.20;;;3.28;;
44137;SDS011;29800;55.942;37.314;2023-03-14T03:42:54;4.93;;;2.47;;
44137;SDS011;29800;55.942;37.314;2023-03-14T03:45:20;2.67;;;1.63;;
44137;SDS011;29800;55.942;37.314;2023-03-14T03:47:53;4.25;;;2.00;;
44137;SDS011;29800;55.942;37.314;2023-03-14T03:50:19;5.45;;;3.38;;
44137;SDS011;29800;55.942;37.314;2023-03-14T03:52:47;6.13;;;2.75;;
44137;SDS011;29800;55.942;37.314;2023-03-14T03:55:13;6.50;;;2.15;;
44137;SDS011;29800;55.942;37.314;2023-03-14T03:57:39;5.88;;;2.95;;
44137;SDS011;29800;55.942;37.314;2023-03-14T04:00:06;7.03;;;3.28;;
44137;SDS011;29800;55.942;37.314;2023-03-14T04:02:41;3.13;;;1.40;;
44137;SDS011;29800;55.942;37.314;2023-03-14T04:05:11;3.25;;;1.67;;
44137;SDS011;29800;55.942;37.314;2023-03-14T04:07:44;7.50;;;4.43;;
44137;SDS011;29800;55.942;37.314;2023-03-14T04:10:14;9.05;;;4.90;;
44137;SDS011;29800;55.942;37.314;2023-03-14T04:12:47;7.25;;;4.18;;
44137;SDS011;29800;55.942;37.314;2023-03-14T04:15:18;10.80;;;5.35;;
44137;SDS011;29800;55.942;37.314;2023-03-14T04:17:48;7.43;;;3.83;;
44137;SDS011;29800;55.942;37.314;2023-03-14T04:20:15;6.10;;;3.90;;
44137;SDS011;29800;55.942;37.314;2023-03-14T04:22:41;8.18;;;3.70;;
44137;SDS011;29800;55.942;37.314;2023-03-14T04:25:08;7.20;;;4.57;;
44137;SDS011;29800;55.942;37.314;2023-03-14T04:27:40;9.07;;;4.40;;
44137;SDS011;29800;55.942;37.314;2023-03-14T04:30:15;8.43;;;4.15;;
44137;SDS011;29800;55.942;37.314;2023-03-14T04:33:06;8.50;;;4.35;;
44137;SDS011;29800;55.942;37.314;2023-03-14T04:35:37;9.32;;;4.70;;
44137;SDS011;29800;55.942;37.314;2023-03-14T04:38:08;6.68;;;4.35;;
44137;SDS011;29800;55.942;37.314;2023-03-14T04:40:36;5.53;;;3.97;;
44137;SDS011;29800;55.942;37.314;2023-03-14T04:43:07;7.25;;;4.70;;
44137;SDS011;29800;55.942;37.314;2023-03-14T04:45:41;7.47;;;4.43;;
44137;SDS011;29800;55.942;37.314;2023-03-14T04:48:09;6.35;;;3.85;;
44137;SDS011;29800;55.942;37.314;2023-03-14T04:50:37;6.93;;;4.68;;
44137;SDS011;29800;55.942;37.314;2023-03-14T04:53:03;6.28;;;4.28;;
44137;SDS011;29800;55.942;37.314;2023-03-14T04:55:30;5.90;;;4.30;;
44137;SDS011;29800;55.942;37.314;2023-03-14T04:57:58;8.25;;;4.25;;
44137;SDS011;29800;55.942;37.314;2023-03-14T05:00:25;5.25;;;3.92;;
44137;SDS011;29800;55.942;37.314;2023-03-14T05:03:10;5.72;;;3.80;;
44137;SDS011;29800;55.942;37.314;2023-03-14T05:06:05;7.07;;;3.83;;
44137;SDS011;29800;55.942;37.314;2023-03-14T05:08:51;7.07;;;4.45;;
44137;SDS011;29800;55.942;37.314;2023-03-14T05:11:18;7.07;;;4.38;;
44137;SDS011;29800;55.942;37.314;2023-03-14T05:16:39;6.85;;;3.72;;
44137;SDS011;29800;55.942;37.314;2023-03-14T05:19:28;7.55;;;4.18;;
44137;SDS011;29800;55.942;37.314;2023-03-14T05:22:10;6.03;;;4.10;;
44137;SDS011;29800;55.942;37.314;2023-03-14T05:24:46;8.93;;;4.68;;
44137;SDS011;29800;55.942;37.314;2023-03-14T05:27:31;8.30;;;4.35;;
44137;SDS011;29800;55.942;37.314;2023-03-14T05:30:00;7.10;;;4.28;;
44137;SDS011;29800;55.942;37.314;2023-03-14T05:33:03;6.97;;;4.20;;
44137;SDS011;29800;55.942;37.314;2023-03-14T05:35:41;6.93;;;4.68;;
44137;SDS011;29800;55.942;37.314;2023-03-14T05:38:26;10.85;;;4.75;;
44137;SDS011;29800;55.942;37.314;2023-03-14T05:41:16;5.97;;;3.75;;
44137;SDS011;29800;55.942;37.314;2023-03-14T05:44:00;14.18;;;4.10;;
44137;SDS011;29800;55.942;37.314;2023-03-14T05:46:49;6.55;;;4.22;;
44137;SDS011;29800;55.942;37.314;2023-03-14T05:49:42;9.18;;;4.40;;
44137;SDS011;29800;55.942;37.314;2023-03-14T05:55:06;7.28;;;3.05;;
44137;SDS011;29800;55.942;37.314;2023-03-14T05:57:36;6.20;;;3.75;;
44137;SDS011;29800;55.942;37.314;2023-03-14T06:00:21;8.30;;;3.72;;
44137;SDS011;29800;55.942;37.314;2023-03-14T06:03:11;4.47;;;3.03;;
44137;SDS011;29800;55.942;37.314;2023-03-14T06:05:42;8.15;;;3.85;;
44137;SDS011;29800;55.942;37.314;2023-03-14T06:08:09;5.47;;;3.42;;
44137;SDS011;29800;55.942;37.314;2023-03-14T06:10:36;6.40;;;3.67;;
44137;SDS011;29800;55.942;37.314;2023-03-14T06:13:04;7.10;;;3.40;;
44137;SDS011;29800;55.942;37.314;2023-03-14T06:15:32;6.30;;;3.45;;
44137;SDS011;29800;55.942;37.314;2023-03-14T06:17:59;5.22;;;3.05;;
44137;SDS011;29800;55.942;37.314;2023-03-14T06:20:26;5.18;;;3.05;;
44137;SDS011;29800;55.942;37.314;2023-03-14T06:22:53;5.75;;;3.25;;
44137;SDS011;29800;55.942;37.314;2023-03-14T06:25:19;7.55;;;3.40;;
44137;SDS011;29800;55.942;37.314;2023-03-14T06:27:47;6.85;;;3.60;;
44137;SDS011;29800;55.942;37.314;2023-03-14T06:30:15;7.15;;;3.55;;
44137;SDS011;29800;55.942;37.314;2023-03-14T06:32:41;8.52;;;2.90;;
44137;SDS011;29800;55.942;37.314;2023-03-14T06:35:11;4.10;;;2.72;;
44137;SDS011;29800;55.942;37.314;2023-03-14T06:37:40;5.05;;;2.80;;
44137;SDS011;29800;55.942;37.314;2023-03-14T06:40:07;5.18;;;2.78;;
44137;SDS011;29800;55.942;37.314;2023-03-14T06:43:08;9.98;;;2.80;;
44137;SDS011;29800;55.942;37.314;2023-03-14T06:45:36;7.85;;;3.15;;
44137;SDS011;29800;55.942;37.314;2023-03-14T06:48:03;7.38;;;2.85;;
44137;SDS011;29800;55.942;37.314;2023-03-14T06:50:49;5.75;;;2.83;;
44137;SDS011;29800;55.942;37.314;2023-03-14T06:53:16;7.93;;;2.90;;
44137;SDS011;29800;55.942;37.314;2023-03-14T06:55:43;5.18;;;3.17;;
44137;SDS011;29800;55.942;37.314;2023-03-14T06:58:13;5.97;;;2.97;;
44137;SDS011;29800;55.942;37.314;2023-03-14T07:00:42;6.65;;;2.97;;
44137;SDS011;29800;55.942;37.314;2023-03-14T07:03:12;5.13;;;3.13;;
44137;SDS011;29800;55.942;37.314;2023-03-14T07:05:43;5.90;;;2.80;;
44137;SDS011;29800;55.942;37.314;2023-03-14T07:08:10;6.68;;;3.17;;
44137;SDS011;29800;55.942;37.314;2023-03-14T07:10:36;5.55;;;2.90;;
44137;SDS011;29800;55.942;37.314;2023-03-14T07:13:05;7.18;;;3.20;;
44137;SDS011;29800;55.942;37.314;2023-03-14T07:15:35;5.25;;;3.13;;
44137;SDS011;29800;55.942;37.314;2023-03-14T07:18:06;6.78;;;3.70;;
44137;SDS011;29800;55.942;37.314;2023-03-14T07:20:32;5.28;;;3.22;;
44137;SDS011;29800;55.942;37.314;2023-03-14T07:23:00;5.80;;;2.78;;
44137;SDS011;29800;55.942;37.314;2023-03-14T07:25:46;5.07;;;2.88;;
44137;SDS011;29800;55.942;37.314;2023-03-14T07:28:14;7.32;;;2.88;;
44137;SDS011;29800;55.942;37.314;2023-03-14T07:30:42;7.15;;;2.88;;
44137;SDS011;29800;55.942;37.314;2023-03-14T07:33:16;6.45;;;2.80;;
44137;SDS011;29800;55.942;37.314;2023-03-14T07:35:43;5.88;;;3.05;;
44137;SDS011;29800;55.942;37.314;2023-03-14T07:38:09;6.68;;;3.70;;
44137;SDS011;29800;55.942;37.314;2023-03-14T07:40:43;7.22;;;2.78;;
44137;SDS011;29800;55.942;37.314;2023-03-14T07:43:10;7.60;;;3.15;;
44137;SDS011;29800;55.942;37.314;2023-03-14T07:45:47;8.70;;;3.13;;
44137;SDS011;29800;55.942;37.314;2023-03-14T07:48:13;9.65;;;3.00;;
44137;SDS011;29800;55.942;37.314;2023-03-14T07:50:39;6.85;;;2.70;;
44137;SDS011;29800;55.942;37.314;2023-03-14T07:53:06;5.65;;;2.95;;
44137;SDS011;29800;55.942;37.314;2023-03-14T07:55:32;7.38;;;3.17;;
44137;SDS011;29800;55.942;37.314;2023-03-14T07:57:58;8.88;;;2.67;;
44137;SDS011;29800;55.942;37.314;2023-03-14T08:00:25;6.60;;;3.22;;
44137;SDS011;29800;55.942;37.314;2023-03-14T08:02:51;7.47;;;2.58;;
44137;SDS011;29800;55.942;37.314;2023-03-14T08:05:17;5.07;;;2.60;;
44137;SDS011;29800;55.942;37.314;2023-03-14T08:07:43;8.75;;;3.70;;
44137;SDS011;29800;55.942;37.314;2023-03-14T08:10:10;14.50;;;4.63;;
44137;SDS011;29800;55.942;37.314;2023-03-14T08:12:38;9.68;;;5.00;;
44137;SDS011;29800;55.942;37.314;2023-03-14T08:15:04;5.53;;;3.15;;
44137;SDS011;29800;55.942;37.314;2023-03-14T08:17:31;6.43;;;3.80;;
44137;SDS011;29800;55.942;37.314;2023-03-14T08:19:58;24.25;;;5.85;;
44137;SDS011;29800;55.942;37.314;2023-03-14T08:22:24;9.50;;;4.60;;
44137;SDS011;29800;55.942;37.314;2023-03-14T08:24:51;14.75;;;5.03;;
44137;SDS011;29800;55.942;37.314;2023-03-14T08:27:17;7.97;;;4.57;;
44137;SDS011;29800;55.942;37.314;2023-03-14T08:29:43;6.22;;;3.20;;
44137;SDS011;29800;55.942;37.314;2023-03-14T08:32:09;6.05;;;2.67;;
44137;SDS011;29800;55.942;37.314;2023-03-14T08:34:36;6.30;;;3.28;;
44137;SDS011;29800;55.942;37.314;2023-03-14T08:37:03;4.57;;;2.92;;
44137;SDS011;29800;55.942;37.314;2023-03-14T08:39:29;7.30;;;3.05;;
44137;SDS011;29800;55.942;37.314;2023-03-14T08:41:55;5.22;;;2.70;;
44137;SDS011;29800;55.942;37.314;2023-03-14T08:44:21;5.55;;;2.92;;
44137;SDS011;29800;55.942;37.314;2023-03-14T08:46:48;5.53;;;2.70;;
44137;SDS011;29800;55.942;37.314;2023-03-14T08:49:14;5.68;;;2.83;;
44137;SDS011;29800;55.942;37.314;2023-03-14T08:51:40;7.00;;;2.83;;
44137;SDS011;29800;55.942;37.314;2023-03-14T08:54:09;6.20;;;3.33;;
44137;SDS011;29800;55.942;37.314;2023-03-14T08:56:36;5.82;;;2.83;;
44137;SDS011;29800;55.942;37.314;2023-03-14T08:59:03;7.47;;;3.75;;
44137;SDS011;29800;55.942;37.314;2023-03-14T09:01:30;6.50;;;3.35;;
44137;SDS011;29800;55.942;37.314;2023-03-14T09:03:56;5.78;;;2.75;;
44137;SDS011;29800;55.942;37.314;2023-03-14T09:06:22;7.57;;;3.10;;
44137;SDS011;29800;55.942;37.314;2023-03-14T09:08:49;6.63;;;2.90;;
44137;SDS011;29800;55.942;37.314;2023-03-14T09:11:15;6.68;;;3.25;;
44137;SDS011;29800;55.942;37.314;2023-03-14T09:13:41;7.03;;;2.97;;
44137;SDS011;29800;55.942;37.314;2023-03-14T09:16:08;5.30;;;2.85;;
44137;SDS011;29800;55.942;37.314;2023-03-14T09:18:34;5.38;;;2.58;;
44137;SDS011;29800;55.942;37.314;2023-03-14T09:21:01;5.47;;;2.70;;
44137;SDS011;29800;55.942;37.314;2023-03-14T09:23:27;4.85;;;2.83;;
44137;SDS011;29800;55.942;37.314;2023-03-14T09:25:56;6.20;;;2.70;;
44137;SDS011;29800;55.942;37.314;2023-03-14T09:28:23;5.65;;;2.80;;
44137;SDS011;29800;55.942;37.314;2023-03-14T09:30:50;7.68;;;2.67;;
44137;SDS011;29800;55.942;37.314;2023-03-14T09:33:17;6.80;;;3.03;;
44137;SDS011;29800;55.942;37.314;2023-03-14T09:35:44;5.22;;;3.00;;
44137;SDS011;29800;55.942;37.314;2023-03-14T09:38:10;6.35;;;3.08;;
44137;SDS011;29800;55.942;37.314;2023-03-14T09:40:37;7.22;;;3.33;;
44137;SDS011;29800;55.942;37.314;2023-03-14T09:43:04;5.43;;;2.97;;
44137;SDS011;29800;55.942;37.314;2023-03-14T09:45:37;11.23;;;7.72;;
44137;SDS011;29800;55.942;37.314;2023-03-14T09:48:06;4.93;;;3.03;;
44137;SDS011;29800;55.942;37.314;2023-03-14T09:50:43;6.45;;;3.03;;
44137;SDS011;29800;55.942;37.314;2023-03-14T09:53:23;7.85;;;3.30;;
44137;SDS011;29800;55.942;37.314;2023-03-14T09:55:52;6.10;;;3.00;;
44137;SDS011;29800;55.942;37.314;2023-03-14T09:58:21;8.45;;;3.03;;
44137;SDS011;29800;55.942;37.314;2023-03-14T10:00:49;6.13;;;2.95;;
44137;SDS011;29800;55.942;37.314;2023-03-14T10:05:46;5.72;;;2.78;;
44137;SDS011;29800;55.942;37.314;2023-03-14T10:08:13;6.50;;;2.92;;
44137;SDS011;29800;55.942;37.314;2023-03-14T10:10:40;8.18;;;3.10;;
44137;SDS011;29800;55.942;37.314;2023-03-14T10:13:18;9.38;;;3.28;;
44137;SDS011;29800;55.942;37.314;2023-03-14T10:15:54;6.43;;;3.67;;
44137;SDS011;29800;55.942;37.314;2023-03-14T10:18:29;5.88;;;3.63;;
44137;SDS011;29800;55.942;37.314;2023-03-14T10:23:42;7.25;;;3.75;;
44137;SDS011;29800;55.942;37.314;2023-03-14T10:26:13;7.20;;;3.58;;
44137;SDS011;29800;55.942;37.314;2023-03-14T10:28:45;6.22;;;3.05;;
44137;SDS011;29800;55.942;37.314;2023-03-14T10:31:18;10.75;;;4.18;;
44137;SDS011;29800;55.942;37.314;2023-03-14T10:34:00;7.05;;;4.10;;
44137;SDS011;29800;55.942;37.314;2023-03-14T10:36:32;6.82;;;3.53;;
44137;SDS011;29800;55.942;37.314;2023-03-14T10:41:48;7.47;;;2.95;;
44137;SDS011;29800;55.942;37.314;2023-03-14T10:44:19;6.78;;;3.78;;
44137;SDS011;29800;55.942;37.314;2023-03-14T10:47:01;7.05;;;3.38;;
44137;SDS011;29800;55.942;37.314;2023-03-14T10:49:30;5.60;;;3.28;;
44137;SDS011;29800;55.942;37.314;2023-03-14T10:52:24;13.32;;;3.50;;
44137;SDS011;29800;55.942;37.314;2023-03-14T10:55:01;10.95;;;3.55;;
44137;SDS011;29800;55.942;37.314;2023-03-14T10:57:29;8.98;;;3.70;;
44137;SDS011;29800;55.942;37.314;2023-03-14T10:59:56;7.60;;;3.70;;
44137;SDS011;29800;55.942;37.314;2023-03-14T11:08:04;7.57;;;3.38;;
44137;SDS011;29800;55.942;37.314;2023-03-14T11:10:36;7.10;;;3.80;;
44137;SDS011;29800;55.942;37.314;2023-03-14T11:21:52;4.35;;;3.08;;
44137;SDS011;29800;55.942;37.314;2023-03-14T11:27:17;7.47;;;2.90;;
44137;SDS011;29800;55.942;37.314;2023-03-14T11:35:45;8.93;;;3.42;;
44137;SDS011;29800;55.942;37.314;2023-03-14T11:44:01;6.43;;;3.03;;
44137;SDS011;29800;55.942;37.314;2023-03-14T11:46:38;7.82;;;2.92;;
44137;SDS011;29800;55.942;37.314;2023-03-14T11:52:01;5.35;;;3.00;;
44137;SDS011;29800;55.942;37.314;2023-03-14T11:57:01;6.60;;;2.53;;
44137;SDS011;29800;55.942;37.314;2023-03-14T11:59:44;4.95;;;2.60;;
44137;SDS011;29800;55.942;37.314;2023-03-14T12:02:19;6.43;;;2.60;;
44137;SDS011;29800;55.942;37.314;2023-03-14T12:08:02;6.90;;;3.22;;
44137;SDS011;29800;55.942;37.314;2023-03-14T12:11:01;5.50;;;2.70;;
44137;SDS011;29800;55.942;37.314;2023-03-14T12:13:36;10.52;;;3.10;;
44137;SDS011;29800;55.942;37.314;2023-03-14T12:16:04;5.68;;;2.95;;
44137;SDS011;29800;55.942;37.314;2023-03-14T12:18:53;5.75;;;2.97;;
44137;SDS011;29800;55.942;37.314;2023-03-14T12:21:20;5.40;;;2.50;;
44137;SDS011;29800;55.942;37.314;2023-03-14T12:23:54;7.70;;;2.65;;
44137;SDS011;29800;55.942;37.314;2023-03-14T12:26:24;5.20;;;2.67;;
44137;SDS011;29800;55.942;37.314;2023-03-14T12:36:48;8.73;;;2.97;;
44137;SDS011;29800;55.942;37.314;2023-03-14T12:39:33;6.97;;;3.40;;
44137;SDS011;29800;55.942;37.314;2023-03-14T12:50:21;4.82;;;2.80;;
44137;SDS011;29800;55.942;37.314;2023-03-14T12:58:08;5.35;;;2.85;;
44137;SDS011;29800;55.942;37.314;2023-03-14T13:00:39;5.75;;;2.80;;
44137;SDS011;29800;55.942;37.314;2023-03-14T13:03:19;4.70;;;2.60;;
44137;SDS011;29800;55.942;37.314;2023-03-14T13:05:51;5.53;;;2.92;;
44137;SDS011;29800;55.942;37.314;2023-03-14T13:08:42;6.00;;;2.72;;
44137;SDS011;29800;55.942;37.314;2023-03-14T13:11:15;6.78;;;3.03;;
44137;SDS011;29800;55.942;37.314;2023-03-14T13:13:47;6.05;;;3.08;;
44137;SDS011;29800;55.942;37.314;2023-03-14T13:16:20;4.85;;;2.50;;
44137;SDS011;29800;55.942;37.314;2023-03-14T13:18:48;6.53;;;2.72;;
44137;SDS011;29800;55.942;37.314;2023-03-14T13:21:26;5.68;;;3.00;;
44137;SDS011;29800;55.942;37.314;2023-03-14T13:23:55;7.53;;;3.50;;
44137;SDS011;29800;55.942;37.314;2023-03-14T13:26:25;5.80;;;2.90;;
44137;SDS011;29800;55.942;37.314;2023-03-14T13:29:10;5.70;;;2.58;;
44137;SDS011;29800;55.942;37.314;2023-03-14T13:31:43;4.10;;;2.40;;
44137;SDS011;29800;55.942;37.314;2023-03-14T13:34:11;5.43;;;2.50;;
44137;SDS011;29800;55.942;37.314;2023-03-14T13:36:37;5.63;;;2.22;;
44137;SDS011;29800;55.942;37.314;2023-03-14T13:39:05;4.80;;;2.58;;
44137;SDS011;29800;55.942;37.314;2023-03-14T13:41:38;5.95;;;2.45;;
44137;SDS011;29800;55.942;37.314;2023-03-14T13:44:13;3.67;;;2.05;;
44137;SDS011;29800;55.942;37.314;2023-03-14T13:46:45;7.28;;;2.58;;
44137;SDS011;29800;55.942;37.314;2023-03-14T13:49:12;5.45;;;2.45;;
44137;SDS011;29800;55.942;37.314;2023-03-14T13:51:47;7.97;;;2.72;;
44137;SDS011;29800;55.942;37.314;2023-03-14T13:54:14;7.35;;;2.60;;
44137;SDS011;29800;55.942;37.314;2023-03-14T13:56:41;4.13;;;2.40;;
44137;SDS011;29800;55.942;37.314;2023-03-14T13:59:27;5.30;;;2.30;;
44137;SDS011;29800;55.942;37.314;2023-03-14T14:01:56;6.38;;;2.47;;
44137;SDS011;29800;55.942;37.314;2023-03-14T14:04:32;4.97;;;2.90;;
44137;SDS011;29800;55.942;37.314;2023-03-14T14:07:06;4.30;;;2.65;;
44137;SDS011;29800;55.942;37.314;2023-03-14T14:09:40;5.95;;;2.83;;
44137;SDS011;29800;55.942;37.314;2023-03-14T14:12:13;4.75;;;2.28;;
44137;SDS011;29800;55.942;37.314;2023-03-14T14:14:52;3.95;;;2.25;;
44137;SDS011;29800;55.942;37.314;2023-03-14T14:17:32;7.25;;;2.75;;
44137;SDS011;29800;55.942;37.314;2023-03-14T14:20:01;11.07;;;2.75;;
44137;SDS011;29800;55.942;37.314;2023-03-14T14:22:31;5.30;;;2.50;;
44137;SDS011;29800;55.942;37.314;2023-03-14T14:24:59;7.47;;;3.08;;
44137;SDS011;29800;55.942;37.314;2023-03-14T14:27:32;5.55;;;2.65;;
44137;SDS011;29800;55.942;37.314;2023-03-14T14:30:03;6.03;;;2.60;;
44137;SDS011;29800;55.942;37.314;2023-03-14T14:32:51;5.68;;;2.58;;
44137;SDS011;29800;55.942;37.314;2023-03-14T14:35:24;7.15;;;2.50;;
44137;SDS011;29800;55.942;37.314;2023-03-14T14:37:56;4.25;;;2.40;;
44137;SDS011;29800;55.942;37.314;2023-03-14T14:40:24;5.07;;;2.20;;
44137;SDS011;29800;55.942;37.314;2023-03-14T14:42:52;6.80;;;2.40;;
44137;SDS011;29800;55.942;37.314;2023-03-14T14:45:20;4.47;;;2.28;;
44137;SDS011;29800;55.942;37.314;2023-03-14T14:47:52;4.75;;;2.13;;
44137;SDS011;29800;55.942;37.314;2023-03-14T14:53:26;6.80;;;2.92;;
44137;SDS011;29800;55.942;37.314;2023-03-14T14:55:55;7.72;;;2.58;;
44137;SDS011;29800;55.942;37.314;2023-03-14T15:00:56;4.95;;;2.33;;
44137;SDS011;29800;55.942;37.314;2023-03-14T15:03:29;4.80;;;2.60;;
44137;SDS011;29800;55.942;37.314;2023-03-14T15:05:58;5.40;;;2.67;;
44137;SDS011;29800;55.942;37.314;2023-03-14T15:08:25;4.07;;;2.17;;
44137;SDS011;29800;55.942;37.314;2023-03-14T15:10:52;5.82;;;2.38;;
44137;SDS011;29800;55.942;37.314;2023-03-14T15:13:18;4.15;;;2.30;;
44137;SDS011;29800;55.942;37.314;2023-03-14T15:15:44;5.28;;;2.88;;
44137;SDS011;29800;55.942;37.314;2023-03-14T15:18:12;3.25;;;2.03;;
44137;SDS011;29800;55.942;37.314;2023-03-14T15:20:41;4.63;;;2.58;;
44137;SDS011;29800;55.942;37.314;2023-03-14T15:23:11;9.35;;;2.70;;
44137;SDS011;29800;55.942;37.314;2023-03-14T15:25:41;4.63;;;2.40;;
44137;SDS011;29800;55.942;37.314;2023-03-14T15:28:14;5.47;;;2.15;;
44137;SDS011;29800;55.942;37.314;2023-03-14T15:30:49;5.97;;;2.35;;
44137;SDS011;29800;55.942;37.314;2023-03-14T15:33:17;5.07;;;2.30;;
44137;SDS011;29800;55.942;37.314;2023-03-14T15:35:44;5.88;;;2.30;;
44137;SDS011;29800;55.942;37.314;2023-03-14T15:38:14;6.75;;;2.40;;
44137;SDS011;29800;55.942;37.314;2023-03-14T15:40:42;4.95;;;2.25;;
44137;SDS011;29800;55.942;37.314;2023-03-14T15:43:08;4.95;;;2.60;;
44137;SDS011;29800;55.942;37.314;2023-03-14T15:45:35;4.90;;;2.60;;
44137;SDS011;29800;55.942;37.314;2023-03-14T15:48:01;4.50;;;1.98;;
44137;SDS011;29800;55.942;37.314;2023-03-14T15:50:29;5.72;;;2.35;;
44137;SDS011;29800;55.942;37.314;2023-03-14T15:52:56;4.28;;;2.20;;
44137;SDS011;29800;55.942;37.314;2023-03-14T15:55:23;4.82;;;2.15;;
44137;SDS011;29800;55.942;37.314;2023-03-14T15:57:49;5.47;;;2.50;;
44137;SDS011;29800;55.942;37.314;2023-03-14T16:00:16;5.30;;;2.45;;
44137;SDS011;29800;55.942;37.314;2023-03-14T16:02:47;4.10;;;2.30;;
44137;SDS011;29800;55.942;37.314;2023-03-14T16:05:14;4.82;;;2.28;;
44137;SDS011;29800;55.942;37.314;2023-03-14T16:07:41;4.68;;;2.20;;
44137;SDS011;29800;55.942;37.314;2023-03-14T16:10:09;6.68;;;2.83;;
44137;SDS011;29800;55.942;37.314;2023-03-14T16:12:38;5.00;;;2.42;;
44137;SDS011;29800;55.942;37.314;2023-03-14T16:15:08;3.72;;;2.30;;
44137;SDS011;29800;55.942;37.314;2023-03-14T16:17:35;5.35;;;2.28;;
44137;SDS011;29800;55.942;37.314;2023-03-14T16:20:04;7.50;;;2.30;;
44137;SDS011;29800;55.942;37.314;2023-03-14T16:22:30;8.48;;;2.45;;